Time;durP1;ratioP1;P1;durP2;ratioP2;P2;SDS_P1;SDS_P2;PMS_P1;PMS_P2;Temp;Humidity;BMP_temperature;BMP_pressure;BME280_temperature;BME280_humidity;BME280_pressure;Samples;Min_cycle;Max_cycle;Signal;HPM_P1;HPM_P2
2022/01/31 00:00:30;;;;;;;3.72;1.65;;;-1.20;99.90;;;;;;5103311;28;20372;-81
2022/01/31 00:02:56;;;;;;;4.40;1.73;;;-1.30;99.90;;;;;;5098045;28;20051;-81
2022/01/31 00:05:22;;;;;;;4.63;1.75;;;-1.30;99.90;;;;;;5116755;28;20102;-81
2022/01/31 00:07:47;;;;;;;8.02;2.83;;;-1.30;99.90;;;;;;5116529;28;20067;-81
2022/01/31 00:10:15;;;;;;;5.78;2.72;;;-1.40;99.90;;;;;;5116476;28;20568;-81
2022/01/31 00:15:42;;;;;;;6.85;3.13;;;-1.50;99.90;;;;;;5103100;28;20107;-81
2022/01/31 00:18:08;;;;;;;5.22;2.70;;;-1.40;99.90;;;;;;5116262;28;20023;-81
2022/01/31 00:20:36;;;;;;;8.68;2.38;;;-1.50;99.90;;;;;;5098128;28;20027;-81
2022/01/31 00:23:01;;;;;;;7.07;3.80;;;-1.50;99.90;;;;;;5116435;28;20012;-81
2022/01/31 00:25:27;;;;;;;6.45;3.30;;;-1.50;99.90;;;;;;5116278;28;20399;-81
2022/01/31 00:27:53;;;;;;;4.95;2.40;;;-1.50;99.90;;;;;;5116483;28;20028;-81
2022/01/31 00:30:19;;;;;;;8.38;3.03;;;-1.50;99.90;;;;;;5116066;28;20076;-81
2022/01/31 00:32:45;;;;;;;4.65;2.35;;;-1.50;99.90;;;;;;5116381;28;20054;-81
2022/01/31 00:35:11;;;;;;;5.75;2.20;;;-1.60;99.90;;;;;;5116017;28;20038;-81
2022/01/31 00:37:37;;;;;;;4.95;2.10;;;-1.60;99.90;;;;;;5116140;28;20031;-81
2022/01/31 00:40:06;;;;;;;4.15;2.20;;;-1.70;99.90;;;;;;5115611;28;20063;-81
2022/01/31 00:42:32;;;;;;;4.88;1.90;;;-1.70;99.90;;;;;;5115819;28;20027;-81
2022/01/31 00:45:12;;;;;;;3.47;2.00;;;-1.70;99.90;;;;;;5113574;28;20020;-81
2022/01/31 00:47:41;;;;;;;4.13;2.42;;;-1.70;99.90;;;;;;5115789;28;20020;-81
2022/01/31 00:50:12;;;;;;;4.45;2.35;;;-1.80;99.90;;;;;;5109452;28;20023;-81
2022/01/31 00:52:41;;;;;;;5.47;1.85;;;-1.80;99.90;;;;;;5097405;28;20019;-81
2022/01/31 00:55:09;;;;;;;6.13;2.22;;;-1.80;99.90;;;;;;5115152;28;20042;-81
2022/01/31 00:57:35;;;;;;;6.60;2.08;;;-1.80;99.90;;;;;;5115839;28;20019;-81
2022/01/31 01:00:00;;;;;;;5.45;2.05;;;-1.80;99.90;;;;;;5097414;28;20023;-81
2022/01/31 01:02:26;;;;;;;8.18;2.22;;;-1.80;99.90;;;;;;5113926;28;20031;-81
2022/01/31 01:04:53;;;;;;;7.07;2.55;;;-1.80;99.90;;;;;;5114480;28;20027;-82
2022/01/31 01:07:22;;;;;;;4.32;1.90;;;-1.80;99.90;;;;;;5115265;28;20112;-82
2022/01/31 01:09:48;;;;;;;5.47;1.80;;;-1.90;99.90;;;;;;5105387;28;20028;-81
2022/01/31 01:12:17;;;;;;;4.28;2.10;;;-1.90;99.90;;;;;;5097260;28;20024;-82
2022/01/31 01:14:43;;;;;;;5.82;1.90;;;-2.00;99.90;;;;;;5098383;28;20126;-82
2022/01/31 01:17:09;;;;;;;3.58;1.80;;;-2.00;99.90;;;;;;5115240;28;20020;-82
2022/01/31 01:19:35;;;;;;;7.75;2.45;;;-2.00;99.90;;;;;;5116028;28;20023;-82
2022/01/31 01:22:01;;;;;;;4.38;2.10;;;-2.00;99.90;;;;;;5114612;28;20031;-82
2022/01/31 01:24:27;;;;;;;7.03;2.30;;;-2.10;99.90;;;;;;5113851;28;20454;-82
2022/01/31 01:26:53;;;;;;;3.90;1.73;;;-2.10;99.90;;;;;;5115084;28;20098;-81
2022/01/31 01:29:20;;;;;;;4.00;2.08;;;-2.20;99.90;;;;;;5115153;28;20088;-82
2022/01/31 01:31:47;;;;;;;3.70;1.60;;;-2.20;99.90;;;;;;5097310;28;20045;-82
2022/01/31 01:34:13;;;;;;;5.30;2.00;;;-2.20;99.90;;;;;;5115518;28;20110;-81
2022/01/31 01:36:40;;;;;;;3.65;1.88;;;-2.20;99.90;;;;;;5115398;28;20030;-82
2022/01/31 01:39:06;;;;;;;5.55;2.20;;;-2.20;99.90;;;;;;5114966;28;20468;-82
2022/01/31 01:41:32;;;;;;;5.20;2.15;;;-2.20;99.90;;;;;;5115509;28;20028;-81
2022/01/31 01:43:58;;;;;;;3.95;2.30;;;-2.30;99.90;;;;;;5096887;28;20072;-82
2022/01/31 01:46:23;;;;;;;5.43;2.10;;;-2.30;99.90;;;;;;5096911;28;20034;-81
2022/01/31 01:48:49;;;;;;;4.88;2.00;;;-2.40;99.90;;;;;;5114954;28;20019;-81
2022/01/31 01:51:16;;;;;;;2.65;1.88;;;-2.40;99.90;;;;;;5114889;28;20027;-81
2022/01/31 01:53:42;;;;;;;4.00;2.10;;;-2.40;99.90;;;;;;5115040;28;20095;-82
2022/01/31 01:56:08;;;;;;;3.22;2.10;;;-2.40;99.90;;;;;;5096936;28;20487;-81
2022/01/31 01:58:42;;;;;;;6.93;2.25;;;-2.50;99.90;;;;;;5115029;28;20028;-81
2022/01/31 02:01:10;;;;;;;3.63;2.00;;;-2.60;99.90;;;;;;5114663;28;20028;-81
2022/01/31 02:03:39;;;;;;;3.50;1.75;;;-2.70;99.90;;;;;;5114524;28;20036;-81
2022/01/31 02:06:06;;;;;;;3.72;2.05;;;-2.80;99.90;;;;;;5114874;28;20485;-81
2022/01/31 02:08:43;;;;;;;6.60;2.03;;;-2.90;99.90;;;;;;5106921;28;20020;-81
2022/01/31 02:11:11;;;;;;;5.25;2.00;;;-2.90;99.90;;;;;;5115129;28;20024;-81
2022/01/31 02:13:37;;;;;;;3.72;1.90;;;-2.80;99.90;;;;;;5096146;28;20023;-81
2022/01/31 02:16:05;;;;;;;5.50;1.92;;;-2.80;99.90;;;;;;5095714;28;20391;-81
2022/01/31 02:18:31;;;;;;;4.57;2.30;;;-2.80;99.90;;;;;;5114317;28;20020;-81
2022/01/31 02:20:58;;;;;;;5.10;2.30;;;-2.80;99.90;;;;;;5114371;28;20024;-80
2022/01/31 02:23:26;;;;;;;6.05;2.00;;;-2.80;99.90;;;;;;5114115;28;20425;-81
2022/01/31 02:26:03;;;;;;;5.45;1.95;;;-2.90;99.90;;;;;;5114084;28;20043;-81
2022/01/31 02:28:35;;;;;;;3.88;1.60;;;-2.90;99.90;;;;;;5114147;28;20016;-81
2022/01/31 02:31:02;;;;;;;4.13;1.90;;;-2.90;99.90;;;;;;5114386;28;20024;-81
2022/01/31 02:33:28;;;;;;;5.25;1.90;;;-2.90;99.90;;;;;;5100799;28;20031;-81
2022/01/31 02:36:00;;;;;;;4.45;2.05;;;-2.90;99.90;;;;;;5117324;28;20098;-81
2022/01/31 02:38:26;;;;;;;2.90;1.85;;;-2.80;99.90;;;;;;5118351;28;20015;-81
2022/01/31 02:40:53;;;;;;;3.17;1.98;;;-2.80;99.90;;;;;;5118491;28;20483;-81
2022/01/31 02:43:49;;;;;;;4.63;2.15;;;-2.80;99.90;;;;;;5117916;28;20102;-81
2022/01/31 02:46:15;;;;;;;5.30;2.33;;;-2.80;99.90;;;;;;5116502;28;20043;-81
2022/01/31 02:48:41;;;;;;;4.90;2.00;;;-2.90;99.90;;;;;;5099719;28;20016;-81
2022/01/31 02:51:10;;;;;;;7.03;2.38;;;-2.80;99.90;;;;;;5118296;28;20108;-81
2022/01/31 02:53:41;;;;;;;3.25;1.90;;;-2.90;99.90;;;;;;5118092;28;20103;-80
2022/01/31 02:56:08;;;;;;;5.90;2.47;;;-2.90;99.90;;;;;;5118117;28;20038;-81
2022/01/31 02:58:34;;;;;;;4.57;1.98;;;-2.90;99.90;;;;;;5117462;28;20034;-80
2022/01/31 03:01:00;;;;;;;4.15;2.20;;;-2.90;99.90;;;;;;5099853;28;20173;-80
2022/01/31 03:03:26;;;;;;;3.85;2.35;;;-2.90;99.90;;;;;;5118053;28;20024;-80
2022/01/31 03:05:52;;;;;;;5.07;1.92;;;-2.90;99.90;;;;;;5117840;28;20024;-80
2022/01/31 03:08:19;;;;;;;4.03;2.08;;;-2.80;99.90;;;;;;5117639;28;20102;-80
2022/01/31 03:10:44;;;;;;;4.25;2.03;;;-2.80;99.90;;;;;;5117803;28;20383;-80
2022/01/31 03:13:10;;;;;;;5.80;2.08;;;-2.80;99.90;;;;;;5117715;28;20019;-80
2022/01/31 03:15:36;;;;;;;4.95;1.88;;;-2.80;99.90;;;;;;5099066;28;20166;-80
2022/01/31 03:18:04;;;;;;;4.05;1.90;;;-2.80;99.90;;;;;;5099248;28;20106;-80
2022/01/31 03:20:30;;;;;;;3.50;1.75;;;-2.80;99.90;;;;;;5098976;28;20433;-80
2022/01/31 03:22:56;;;;;;;4.45;2.28;;;-2.80;99.90;;;;;;5117410;28;20099;-80
2022/01/31 03:25:21;;;;;;;4.60;2.10;;;-2.80;99.90;;;;;;5117400;28;20024;-80
2022/01/31 03:27:48;;;;;;;6.50;2.55;;;-2.80;99.90;;;;;;5117734;28;20028;-80
2022/01/31 03:30:17;;;;;;;5.53;2.80;;;-2.80;99.90;;;;;;5099060;28;20024;-80
2022/01/31 03:32:43;;;;;;;5.20;2.38;;;-2.80;99.90;;;;;;5099066;28;20020;-80
2022/01/31 03:35:09;;;;;;;4.07;2.10;;;-2.80;99.90;;;;;;5117429;28;20026;-80
2022/01/31 03:37:36;;;;;;;5.35;2.10;;;-2.70;99.90;;;;;;5117333;28;20383;-81
2022/01/31 03:40:03;;;;;;;6.38;2.75;;;-2.70;99.90;;;;;;5099419;28;20027;-81
2022/01/31 03:42:29;;;;;;;8.02;3.40;;;-2.70;99.90;;;;;;5116603;28;20028;-81
2022/01/31 03:44:55;;;;;;;8.40;2.80;;;-2.70;99.90;;;;;;5117364;28;20020;-81
2022/01/31 03:47:22;;;;;;;7.70;2.83;;;-2.70;99.90;;;;;;5116319;28;20055;-81
2022/01/31 03:49:48;;;;;;;6.20;2.72;;;-2.80;99.90;;;;;;5099577;28;20054;-81
2022/01/31 03:52:15;;;;;;;6.28;2.42;;;-2.90;99.90;;;;;;5118060;28;20100;-81
2022/01/31 03:54:41;;;;;;;4.47;2.08;;;-3.00;99.90;;;;;;5117288;28;20487;-81
2022/01/31 03:57:07;;;;;;;4.63;1.98;;;-3.00;99.90;;;;;;5117162;28;20031;-81
2022/01/31 03:59:32;;;;;;;4.90;2.03;;;-3.00;99.90;;;;;;5117490;28;20024;-81
2022/01/31 04:01:58;;;;;;;2.75;1.60;;;-3.00;99.90;;;;;;5117014;28;20113;-81
2022/01/31 04:04:24;;;;;;;4.47;2.15;;;-3.10;99.90;;;;;;5098557;28;20067;-81
2022/01/31 04:06:50;;;;;;;4.80;1.85;;;-3.00;99.90;;;;;;5116735;28;20034;-81
2022/01/31 04:09:16;;;;;;;3.72;1.73;;;-3.10;99.90;;;;;;5116960;28;20016;-81
2022/01/31 04:11:43;;;;;;;4.53;2.08;;;-3.00;99.90;;;;;;5117460;28;20516;-81
2022/01/31 04:14:09;;;;;;;4.88;2.03;;;-3.00;99.90;;;;;;5098414;28;20034;-81
2022/01/31 04:16:35;;;;;;;3.83;1.88;;;-3.00;99.90;;;;;;5116332;28;20032;-81
2022/01/31 04:19:00;;;;;;;3.95;2.05;;;-3.00;99.90;;;;;;5116882;28;20379;-80
2022/01/31 04:21:26;;;;;;;2.65;1.90;;;-3.00;99.90;;;;;;5098700;28;20035;-80
2022/01/31 04:23:53;;;;;;;5.22;2.10;;;-3.00;99.90;;;;;;5098228;28;20026;-81
2022/01/31 04:26:19;;;;;;;8.95;2.28;;;-3.00;99.90;;;;;;5116245;28;20093;-81
2022/01/31 04:28:49;;;;;;;5.45;2.08;;;-3.00;99.90;;;;;;5111610;28;20476;-81
2022/01/31 04:33:45;;;;;;;6.88;3.78;;;-3.30;99.90;;;;;;5117299;28;20019;-82
2022/01/31 04:36:14;;;;;;;11.00;5.60;;;-3.30;99.90;;;;;;5116916;28;20031;-81
2022/01/31 04:38:40;;;;;;;12.10;5.32;;;-3.40;99.90;;;;;;5098399;28;20024;-81
2022/01/31 04:41:06;;;;;;;8.50;4.53;;;-3.40;99.90;;;;;;5098612;28;20365;-81
2022/01/31 04:43:33;;;;;;;12.50;4.80;;;-3.40;99.90;;;;;;5097876;28;20024;-81
2022/01/31 04:46:01;;;;;;;8.98;3.80;;;-3.40;99.90;;;;;;5116635;28;20023;-81
2022/01/31 04:48:28;;;;;;;5.65;2.20;;;-3.30;99.90;;;;;;5116531;28;20103;-81
2022/01/31 04:50:54;;;;;;;6.10;2.80;;;-3.30;99.90;;;;;;5098058;28;20019;-81
2022/01/31 04:53:20;;;;;;;7.80;2.95;;;-3.30;99.90;;;;;;5098434;28;20472;-81
2022/01/31 04:55:46;;;;;;;4.90;2.05;;;-3.30;99.90;;;;;;5114737;28;20027;-81
2022/01/31 04:58:11;;;;;;;5.97;2.10;;;-3.30;99.90;;;;;;5117091;28;20104;-81
2022/01/31 05:00:37;;;;;;;4.28;2.40;;;-3.20;99.90;;;;;;5120855;27;20024;-81
2022/01/31 05:03:09;;;;;;;6.65;3.15;;;-3.20;99.90;;;;;;5097817;28;20388;-80
2022/01/31 05:05:35;;;;;;;9.00;3.42;;;-3.30;99.90;;;;;;5115990;28;20448;-80
2022/01/31 05:08:01;;;;;;;6.63;3.25;;;-3.30;99.90;;;;;;5115783;28;20095;-80
2022/01/31 05:10:26;;;;;;;5.00;2.70;;;-3.30;99.90;;;;;;5116263;28;20072;-80
2022/01/31 05:12:52;;;;;;;6.65;3.15;;;-3.40;99.90;;;;;;5096918;28;20024;-80
2022/01/31 05:15:18;;;;;;;7.30;3.42;;;-3.30;99.90;;;;;;5097552;28;20031;-80
2022/01/31 05:17:44;;;;;;;7.63;3.45;;;-3.20;99.90;;;;;;5113624;28;20028;-80
2022/01/31 05:20:10;;;;;;;8.95;4.25;;;-3.10;99.90;;;;;;5096288;28;20050;-80
2022/01/31 05:22:35;;;;;;;9.63;3.97;;;-3.00;99.90;;;;;;5112578;28;20012;-80
2022/01/31 05:25:01;;;;;;;7.75;2.78;;;-3.00;99.90;;;;;;5106918;28;20503;-80
2022/01/31 05:27:27;;;;;;;4.22;2.10;;;-2.90;99.90;;;;;;5114862;28;20032;-80
2022/01/31 05:29:53;;;;;;;5.70;2.38;;;-3.00;99.90;;;;;;5096314;28;20028;-80
2022/01/31 05:32:18;;;;;;;6.45;2.20;;;-3.10;99.90;;;;;;5115682;28;20406;-80
2022/01/31 05:34:44;;;;;;;4.30;1.90;;;-3.10;99.90;;;;;;5096825;28;20432;-80
2022/01/31 05:37:10;;;;;;;7.53;2.35;;;-3.10;99.90;;;;;;5115991;28;20054;-79
2022/01/31 05:39:36;;;;;;;31.38;7.60;;;-3.10;99.90;;;;;;5097456;28;20119;-80
2022/01/31 05:42:01;;;;;;;15.68;6.13;;;-3.10;99.90;;;;;;5115601;28;20023;-80
2022/01/31 05:44:27;;;;;;;68.32;26.25;;;-3.10;99.90;;;;;;5115101;28;20055;-80
2022/01/31 05:46:53;;;;;;;37.15;18.58;;;-3.10;99.90;;;;;;5097019;28;20047;-80
2022/01/31 05:49:19;;;;;;;25.08;12.68;;;-3.10;99.90;;;;;;5114957;28;20360;-80
2022/01/31 05:51:57;;;;;;;18.75;10.07;;;-3.10;99.90;;;;;;5096626;28;20020;-80
2022/01/31 05:54:24;;;;;;;16.52;8.35;;;-3.10;99.90;;;;;;5115770;28;20053;-80
2022/01/31 05:56:50;;;;;;;12.55;6.95;;;-3.10;99.90;;;;;;5114479;28;20485;-80
2022/01/31 05:59:16;;;;;;;13.88;5.68;;;-3.10;99.90;;;;;;5114109;28;20096;-79
2022/01/31 06:01:42;;;;;;;12.95;6.85;;;-3.10;99.90;;;;;;5114162;28;20110;-79
2022/01/31 06:04:09;;;;;;;12.18;5.82;;;-3.10;99.90;;;;;;5095873;28;20497;-79
2022/01/31 06:06:35;;;;;;;9.32;4.63;;;-3.10;99.90;;;;;;5114428;28;20525;-79
2022/01/31 06:09:01;;;;;;;13.15;4.97;;;-3.10;99.90;;;;;;5113844;28;20073;-79
2022/01/31 06:11:27;;;;;;;10.27;4.55;;;-3.00;99.90;;;;;;5114924;28;20525;-79
2022/01/31 06:13:55;;;;;;;9.45;4.90;;;-3.00;99.90;;;;;;5114763;28;20023;-79
2022/01/31 06:16:22;;;;;;;6.75;3.33;;;-3.00;99.90;;;;;;5114865;28;20017;-79
2022/01/31 06:18:48;;;;;;;7.70;4.70;;;-3.00;99.90;;;;;;5114381;28;20031;-79
2022/01/31 06:21:13;;;;;;;7.97;3.72;;;-3.00;99.90;;;;;;5114915;28;20027;-79
2022/01/31 06:23:40;;;;;;;7.10;4.28;;;-3.00;99.90;;;;;;5114604;28;20034;-79
2022/01/31 06:26:06;;;;;;;10.85;4.25;;;-3.00;99.90;;;;;;5114607;28;20027;-79
2022/01/31 06:28:32;;;;;;;25.75;11.18;;;-3.00;99.90;;;;;;5115181;28;20421;-79
2022/01/31 06:30:58;;;;;;;46.17;14.77;;;-3.00;99.90;;;;;;5114966;28;20095;-79
2022/01/31 06:33:23;;;;;;;43.75;16.42;;;-2.90;99.90;;;;;;5096781;28;20384;-79
2022/01/31 06:35:49;;;;;;;36.58;14.20;;;-2.90;99.90;;;;;;5096903;28;20023;-79
2022/01/31 06:38:15;;;;;;;13.90;5.78;;;-2.90;99.90;;;;;;5115442;28;20031;-79
2022/01/31 06:40:41;;;;;;;10.45;3.90;;;-2.90;99.90;;;;;;5096495;28;20024;-79
2022/01/31 06:43:07;;;;;;;5.72;3.38;;;-2.90;99.90;;;;;;5114926;28;20034;-79
2022/01/31 06:45:33;;;;;;;8.93;3.35;;;-2.90;99.90;;;;;;5096635;28;20376;-79
2022/01/31 06:47:59;;;;;;;6.85;3.85;;;-2.90;99.90;;;;;;5114750;28;20024;-79
2022/01/31 06:50:24;;;;;;;6.97;3.17;;;-2.80;99.90;;;;;;5114512;28;20028;-79
2022/01/31 06:52:55;;;;;;;7.53;3.90;;;-2.90;99.90;;;;;;5114431;28;20020;-79
2022/01/31 06:55:21;;;;;;;9.73;4.60;;;-2.90;99.90;;;;;;5115164;28;20379;-79
2022/01/31 06:57:49;;;;;;;10.73;5.20;;;-2.90;99.90;;;;;;5114535;28;20019;-79
2022/01/31 07:00:17;;;;;;;12.20;4.60;;;-2.90;99.90;;;;;;5114324;28;20487;-79
2022/01/31 07:02:43;;;;;;;11.57;5.70;;;-2.80;99.90;;;;;;5114627;28;20035;-79
2022/01/31 07:05:09;;;;;;;14.95;6.70;;;-2.80;99.90;;;;;;5114120;28;20483;-79
2022/01/31 07:07:35;;;;;;;8.35;4.68;;;-2.80;99.90;;;;;;5114406;28;20034;-79
2022/01/31 07:10:01;;;;;;;9.23;5.45;;;-2.80;99.90;;;;;;5114353;28;20152;-79
2022/01/31 07:12:36;;;;;;;9.50;4.55;;;-2.90;99.90;;;;;;5114422;28;20031;-79
2022/01/31 07:15:04;;;;;;;11.25;4.50;;;-2.90;99.90;;;;;;5114384;28;20468;-79
2022/01/31 07:17:30;;;;;;;12.07;4.38;;;-2.90;99.90;;;;;;5096196;28;20034;-79
2022/01/31 07:19:56;;;;;;;12.57;4.65;;;-2.80;99.90;;;;;;5096179;28;20019;-79
2022/01/31 07:22:30;;;;;;;12.50;5.50;;;-2.80;99.90;;;;;;5117044;28;20019;-79
2022/01/31 07:25:04;;;;;;;17.65;6.80;;;-2.80;99.90;;;;;;5117636;28;20026;-79
2022/01/31 07:27:30;;;;;;;16.77;6.32;;;-2.70;99.90;;;;;;5117862;28;20020;-79
2022/01/31 07:29:55;;;;;;;8.48;4.57;;;-2.70;99.90;;;;;;5117708;28;20022;-79
2022/01/31 07:32:21;;;;;;;9.63;4.70;;;-2.70;99.90;;;;;;5117845;28;20019;-79
2022/01/31 07:34:49;;;;;;;11.35;5.18;;;-2.70;99.90;;;;;;5117648;28;20023;-78
2022/01/31 07:37:15;;;;;;;17.52;8.48;;;-2.60;99.90;;;;;;5118017;28;20075;-79
2022/01/31 07:39:43;;;;;;;20.55;11.50;;;-2.60;99.90;;;;;;5117515;28;20397;-79
2022/01/31 07:42:09;;;;;;;17.73;7.75;;;-2.50;99.90;;;;;;5118032;28;20028;-79
2022/01/31 07:44:35;;;;;;;17.95;8.38;;;-2.50;99.90;;;;;;5099414;28;20028;-79
2022/01/31 07:47:01;;;;;;;17.60;7.78;;;-2.40;99.90;;;;;;5117558;28;20028;-79
2022/01/31 07:49:27;;;;;;;15.38;7.20;;;-2.30;99.90;;;;;;5117106;28;20029;-78
2022/01/31 07:51:54;;;;;;;9.68;4.35;;;-2.20;99.90;;;;;;5117581;28;20023;-79
2022/01/31 07:54:21;;;;;;;6.78;4.43;;;-2.10;99.90;;;;;;5117829;28;20027;-78
2022/01/31 07:56:47;;;;;;;11.38;6.13;;;-2.10;99.90;;;;;;5117302;28;20028;-79
2022/01/31 07:59:13;;;;;;;12.85;4.30;;;-2.00;99.90;;;;;;5098992;28;20028;-79
2022/01/31 08:01:38;;;;;;;13.27;5.30;;;-2.00;99.90;;;;;;5098581;28;20039;-79
2022/01/31 08:04:04;;;;;;;13.55;5.93;;;-1.90;99.90;;;;;;5117000;28;20437;-79
2022/01/31 08:06:30;;;;;;;10.23;4.60;;;-1.90;99.90;;;;;;5116915;28;20031;-78
2022/01/31 08:08:56;;;;;;;11.77;3.75;;;-1.90;99.90;;;;;;5117516;28;20106;-78
2022/01/31 08:11:24;;;;;;;8.38;3.60;;;-1.90;99.90;;;;;;5116883;28;20055;-78
2022/01/31 08:13:55;;;;;;;10.90;5.80;;;-2.00;99.90;;;;;;5116592;28;20035;-78
2022/01/31 08:16:21;;;;;;;12.25;4.38;;;-1.90;99.90;;;;;;5117356;28;20027;-79
2022/01/31 08:18:48;;;;;;;20.10;8.00;;;-1.90;99.90;;;;;;5116876;28;20028;-78
2022/01/31 08:21:15;;;;;;;12.40;5.30;;;-1.90;99.90;;;;;;5098299;28;20053;-79
2022/01/31 08:23:42;;;;;;;11.82;4.32;;;-1.90;99.90;;;;;;5116678;28;20523;-78
2022/01/31 08:26:12;;;;;;;6.38;3.72;;;-1.90;99.90;;;;;;5115825;28;20035;-79
2022/01/31 08:28:42;;;;;;;5.18;3.00;;;-1.80;99.90;;;;;;5116598;28;20024;-79
2022/01/31 08:31:18;;;;;;;6.40;3.40;;;-1.80;99.90;;;;;;5115820;28;20030;-79
2022/01/31 08:33:50;;;;;;;10.20;4.90;;;-1.70;99.90;;;;;;5097088;28;20016;-79
2022/01/31 08:36:17;;;;;;;11.65;4.32;;;-1.70;99.90;;;;;;5115892;28;20020;-79
2022/01/31 08:38:45;;;;;;;11.77;4.10;;;-1.60;99.90;;;;;;5097759;28;20027;-79
2022/01/31 08:41:12;;;;;;;6.55;3.17;;;-1.60;99.90;;;;;;5115847;28;20028;-79
2022/01/31 08:43:39;;;;;;;8.73;3.35;;;-1.60;99.90;;;;;;5115869;28;20024;-79
2022/01/31 08:46:07;;;;;;;10.55;3.58;;;-1.50;99.90;;;;;;5115925;28;20019;-79
2022/01/31 08:48:33;;;;;;;6.95;3.88;;;-1.40;99.90;;;;;;5115924;28;20031;-78
2022/01/31 08:51:00;;;;;;;6.20;3.38;;;-1.30;99.90;;;;;;5097228;28;20031;-79
2022/01/31 08:53:26;;;;;;;7.95;3.28;;;-1.20;99.90;;;;;;5115538;28;20019;-79
2022/01/31 08:55:58;;;;;;;8.43;3.55;;;-1.20;99.90;;;;;;5115679;28;20023;-79
2022/01/31 08:58:25;;;;;;;8.48;3.40;;;-1.20;99.90;;;;;;5115446;28;20023;-78
2022/01/31 09:00:58;;;;;;;8.00;3.88;;;-1.10;99.90;;;;;;5115428;28;20138;-79
2022/01/31 09:06:10;;;;;;;9.07;4.00;;;-1.00;99.90;;;;;;5115315;28;20023;-78
2022/01/31 09:08:37;;;;;;;8.45;5.43;;;-0.90;99.90;;;;;;5115808;28;20023;-79
2022/01/31 09:11:04;;;;;;;12.90;6.45;;;-0.90;99.90;;;;;;5115359;28;20020;-78
2022/01/31 09:13:30;;;;;;;13.02;5.95;;;-0.80;99.90;;;;;;5096850;28;20035;-79
2022/01/31 09:15:57;;;;;;;14.23;7.30;;;-0.70;99.90;;;;;;5115032;28;20024;-78
2022/01/31 09:18:23;;;;;;;8.70;5.00;;;-0.70;99.90;;;;;;5096639;28;20029;-78
2022/01/31 09:20:48;;;;;;;12.20;5.05;;;-0.70;99.90;;;;;;5115171;28;20016;-79
2022/01/31 09:23:14;;;;;;;7.38;4.20;;;-0.70;99.90;;;;;;5115104;28;20016;-79
2022/01/31 09:25:45;;;;;;;7.85;5.40;;;-0.60;99.90;;;;;;5114808;28;20030;-78
2022/01/31 09:28:12;;;;;;;9.18;4.18;;;-0.60;99.90;;;;;;5115017;28;20024;-78
2022/01/31 09:30:38;;;;;;;14.75;6.47;;;-0.50;99.90;;;;;;5096569;28;20144;-78
2022/01/31 09:33:04;;;;;;;11.57;6.25;;;-0.50;99.90;;;;;;5114774;28;20434;-79
2022/01/31 09:35:30;;;;;;;16.80;7.47;;;-0.50;99.90;;;;;;5096743;28;20039;-78
2022/01/31 09:37:56;;;;;;;12.18;5.65;;;-0.50;99.90;;;;;;5115683;28;20023;-78
2022/01/31 09:40:23;;;;;;;19.02;5.85;;;-0.50;99.90;;;;;;5114516;28;20360;-78
2022/01/31 09:48:59;;;;;;;13.20;5.72;;;-0.50;99.90;;;;;;5114634;28;20053;-78
2022/01/31 09:51:14;;;;;;;17.17;7.47;;;-0.40;99.90;;;;;;5104372;28;20122;-78
2022/01/31 09:53:47;;;;;;;15.50;7.27;;;-0.40;99.90;;;;;;5096102;28;20020;-78
2022/01/31 09:56:33;;;;;;;11.32;6.28;;;-0.40;99.90;;;;;;5114954;28;20360;-79
2022/01/31 09:59:01;;;;;;;12.18;5.80;;;-0.40;99.90;;;;;;5114965;28;20019;-78
2022/01/31 10:01:49;;;;;;;12.63;6.57;;;-0.40;99.90;;;;;;5114244;28;20122;-78
2022/01/31 10:04:23;;;;;;;12.32;5.93;;;-0.40;99.90;;;;;;5114611;28;20047;-78
2022/01/31 10:06:54;;;;;;;13.07;6.38;;;-0.40;99.90;;;;;;5114525;28;20110;-78
2022/01/31 10:09:28;;;;;;;20.73;6.35;;;-0.30;99.90;;;;;;5114337;28;20075;-78
2022/01/31 10:12:06;;;;;;;13.48;6.10;;;-0.30;99.90;;;;;;5114751;28;20510;-78
2022/01/31 10:17:38;;;;;;;10.85;5.40;;;-0.40;99.90;;;;;;5095573;28;20032;-79
2022/01/31 10:20:17;;;;;;;9.70;5.40;;;-0.40;99.90;;;;;;5114674;28;20020;-78
2022/01/31 10:22:43;;;;;;;10.93;5.63;;;-0.40;99.90;;;;;;5114287;28;20072;-78
2022/01/31 10:25:12;;;;;;;10.13;5.63;;;-0.40;99.90;;;;;;5114563;28;20464;-79
2022/01/31 10:27:39;;;;;;;19.77;10.07;;;-0.40;99.90;;;;;;5115247;28;20019;-79
2022/01/31 10:30:05;;;;;;;21.25;11.15;;;-0.40;99.90;;;;;;5114910;28;20100;-78
2022/01/31 10:32:36;;;;;;;13.52;6.68;;;-0.30;99.90;;;;;;5114671;28;20050;-78
2022/01/31 10:35:06;;;;;;;30.30;13.65;;;-0.30;99.90;;;;;;5114845;28;20073;-78
2022/01/31 10:37:34;;;;;;;26.42;12.15;;;-0.30;99.90;;;;;;5114791;28;20020;-79
2022/01/31 10:53:45;;;;;;;11.65;5.93;;;-0.40;99.90;;;;;;5114825;28;20059;-79
2022/01/31 10:56:11;;;;;;;12.00;4.80;;;-0.40;99.90;;;;;;5116329;28;20110;-79
2022/01/31 10:58:57;;;;;;;9.80;5.68;;;-0.40;99.90;;;;;;5118311;28;20488;-79
2022/01/31 11:01:24;;;;;;;11.98;6.03;;;-0.40;99.90;;;;;;5118100;28;20036;-79
2022/01/31 11:03:51;;;;;;;14.55;7.40;;;-0.40;99.90;;;;;;5117537;28;20043;-79
2022/01/31 11:06:19;;;;;;;15.52;7.75;;;-0.30;99.90;;;;;;5117662;28;20024;-79
2022/01/31 11:08:45;;;;;;;11.13;6.30;;;-0.30;99.90;;;;;;5117527;28;20046;-79
2022/01/31 11:11:11;;;;;;;8.77;5.30;;;-0.20;99.90;;;;;;5117423;28;20019;-79
2022/01/31 11:13:37;;;;;;;11.57;4.97;;;-0.20;99.90;;;;;;5117626;28;20028;-79
2022/01/31 11:16:06;;;;;;;8.40;4.65;;;-0.20;99.90;;;;;;5099197;28;20031;-79
2022/01/31 11:18:33;;;;;;;10.43;4.13;;;-0.20;99.90;;;;;;5117493;28;20088;-79
2022/01/31 11:21:05;;;;;;;7.63;4.82;;;-0.20;99.90;;;;;;5117763;28;20012;-79
2022/01/31 11:23:37;;;;;;;22.42;11.10;;;-0.20;99.90;;;;;;5117631;28;20364;-79
2022/01/31 11:26:05;;;;;;;9.48;5.85;;;-0.20;99.90;;;;;;5117898;28;20403;-79
2022/01/31 11:28:32;;;;;;;12.60;5.38;;;-0.10;99.90;;;;;;5117643;28;20120;-79
2022/01/31 11:31:01;;;;;;;16.83;9.95;;;-0.10;99.90;;;;;;5117660;28;20023;-79
2022/01/31 11:33:27;;;;;;;26.58;14.02;;;-0.10;99.90;;;;;;5117222;28;20106;-79
2022/01/31 11:35:54;;;;;;;17.85;9.98;;;-0.20;99.90;;;;;;5117304;28;20488;-79
2022/01/31 11:38:20;;;;;;;22.13;12.52;;;-0.20;99.90;;;;;;5117337;28;20114;-79
2022/01/31 11:40:47;;;;;;;10.70;5.75;;;-0.20;99.90;;;;;;5117208;28;20452;-79
2022/01/31 11:43:17;;;;;;;9.10;4.93;;;-0.20;99.90;;;;;;5098952;28;20024;-79
2022/01/31 11:45:46;;;;;;;11.27;6.53;;;-0.20;99.90;;;;;;5117498;28;20066;-79
2022/01/31 11:48:19;;;;;;;9.90;5.95;;;-0.20;99.90;;;;;;5117096;28;20027;-79
2022/01/31 11:50:47;;;;;;;11.50;5.38;;;-0.10;99.90;;;;;;5117463;28;20456;-79
2022/01/31 11:53:13;;;;;;;10.82;5.43;;;-0.10;99.90;;;;;;5117099;28;20019;-79
2022/01/31 11:55:39;;;;;;;11.77;5.85;;;-0.10;99.90;;;;;;5116982;28;20467;-79
2022/01/31 11:58:10;;;;;;;10.00;5.53;;;-0.10;99.90;;;;;;5117118;28;20019;-78
2022/01/31 12:00:38;;;;;;;12.15;8.05;;;0.00;99.90;;;;;;5117079;28;20028;-79
2022/01/31 12:03:07;;;;;;;8.38;4.90;;;0.00;99.90;;;;;;5117025;28;20023;-79
2022/01/31 12:05:36;;;;;;;12.07;4.70;;;0.00;99.90;;;;;;5116730;28;20023;-79
2022/01/31 12:08:09;;;;;;;15.05;6.15;;;0.10;99.90;;;;;;5115391;28;20023;-78
2022/01/31 12:10:42;;;;;;;12.65;5.72;;;0.20;99.90;;;;;;5116881;28;20031;-79
2022/01/31 12:13:40;;;;;;;10.63;5.00;;;0.30;99.90;;;;;;5116798;28;20020;-79
2022/01/31 12:16:30;;;;;;;11.90;5.85;;;0.30;99.90;;;;;;5117277;28;20498;-78
2022/01/31 12:22:00;;;;;;;8.90;4.72;;;0.40;99.90;;;;;;5117476;28;20384;-80
2022/01/31 12:24:42;;;;;;;8.23;4.82;;;0.50;99.90;;;;;;5100043;28;20043;-79
2022/01/31 12:27:09;;;;;;;8.23;4.40;;;0.60;99.90;;;;;;5115290;28;20070;-79
2022/01/31 12:29:50;;;;;;;7.07;4.60;;;0.60;99.90;;;;;;5115677;28;20020;-79
2022/01/31 12:32:22;;;;;;;6.53;4.60;;;0.60;99.90;;;;;;5115916;28;20020;-79
2022/01/31 12:34:52;;;;;;;7.90;4.78;;;0.60;99.90;;;;;;5115873;28;20369;-79
2022/01/31 12:37:39;;;;;;;20.70;9.98;;;0.60;99.90;;;;;;5115808;28;20027;-79
2022/01/31 12:40:27;;;;;;;18.27;8.70;;;0.60;99.90;;;;;;5116295;27;20047;-79
2022/01/31 12:45:39;;;;;;;18.48;9.80;;;0.70;99.90;;;;;;5116020;28;20383;-79
2022/01/31 12:48:26;;;;;;;20.85;10.88;;;0.70;99.90;;;;;;5115939;28;20015;-79
2022/01/31 12:50:52;;;;;;;19.13;11.20;;;0.70;99.90;;;;;;5115642;28;20020;-80
2022/01/31 12:53:24;;;;;;;15.63;11.60;;;0.70;99.90;;;;;;5105664;28;20115;-80
2022/01/31 12:56:08;;;;;;;8.30;5.45;;;0.80;99.90;;;;;;5115621;28;20019;-80
2022/01/31 12:58:40;;;;;;;6.70;4.22;;;0.90;99.90;;;;;;5097359;28;20383;-79
2022/01/31 13:01:11;;;;;;;7.00;3.70;;;1.00;99.90;;;;;;5114978;28;20032;-79
2022/01/31 13:03:41;;;;;;;5.30;3.05;;;1.10;99.90;;;;;;5115931;28;20426;-79
2022/01/31 13:06:37;;;;;;;6.15;3.33;;;1.10;99.90;;;;;;5115012;28;20028;-79
2022/01/31 13:09:15;;;;;;;9.63;4.95;;;1.20;99.90;;;;;;5097548;28;20024;-79
2022/01/31 13:11:44;;;;;;;6.95;3.80;;;1.20;99.90;;;;;;5115938;28;20037;-79
2022/01/31 13:14:14;;;;;;;5.82;3.08;;;1.30;99.90;;;;;;5115462;28;20042;-78
2022/01/31 13:17:04;;;;;;;7.40;3.30;;;1.30;99.90;;;;;;5097829;28;20547;-78
2022/01/31 13:19:33;;;;;;;8.23;4.20;;;1.30;99.90;;;;;;5111659;28;20265;-80
2022/01/31 13:22:06;;;;;;;7.35;4.20;;;1.30;99.90;;;;;;5076529;28;20460;-81
2022/01/31 13:24:35;;;;;;;9.05;4.43;;;1.30;99.90;;;;;;5095151;28;20020;-80